Sary-Arka Airport
UAKK : now visible

Airfield :











YOU CAN JOIN US ON...

 
LOGIN :

Register | Disclaimer

   EN    FR    IT 

 









Legend :    VFR   Marginal VFR   IFR   Intensive IFR   Very Intensive IFR
Visi :
Ceiling :
>= 8 km
>= 3000ft
5 to 8 km
1000 to 3000 ft
1500m to 5 km
500 to 1000 ft
800 to 1500m
200 to 500 ft
< 800m
< 200 ft
Symbols :   Thunderstorms  Fog  Heavy snow  Heavy precipitations  Wind > 20 kt






- Airport Elevation : 1765 ft
- IATA code : KGF


UAKK - Sary-Arka

CURRENT METAR :
  • 062100Z 10004MPS CAVOK 03/02 Q1012 R23/0///70 NOSIG RMK QFE712/0950

EXPIRED METARs :
  • 062030Z 11004MPS CAVOK 04/02 Q1013 R23/0///70 NOSIG RMK QFE713/0951
  • 062000Z 13004MPS CAVOK 03/02 Q1013 R23/0///70 NOSIG RMK QFE713/0951
  • 061930Z 13003MPS CAVOK 03/02 Q1014 R23/0///70 NOSIG RMK QFE713/0951
  • 061900Z 13004MPS CAVOK 03/02 Q1014 R23/0///70 NOSIG RMK QFE714/0952
  • 061830Z 13004MPS CAVOK 03/02 Q1014 R23/0///70 NOSIG RMK QFE714/0952
  • 061800Z 14004MPS CAVOK 03/02 Q1015 R23/0///70 NOSIG RMK QFE714/0953

TAF TAF UAKK
Valid from the 06 at 18:00 until the 07 at 18:00 UTC


061700Z 0618/0718 16008MPS 9999 SCT020 BKN100 TX15/0710Z TN04/0624Z
BECMG 0700/0702 18010G15MPS
TEMPO 0703/0706 18015G20MPS SCT030CB
BECMG 0706/0708 23015MPS BKN020
TEMPO 0706/0713 24018G23MPS 3100 -SHRA BKN015CB



MET'MAP, your aeronautical weather chart ! - Copyright ORBIFLY December 2007 - Disclaimer

ORBIFLY MET'MAP TEAM :

Programming & Development : Alexandra Zaïnal
Concept & original design : Baudouin d'Aumeries
Assistance for programming : Marc-Olivier Méhu
Technical & hardware support : Manuel Goepfert

Contact : metmap@orbifly.com




SOURCES & CREDITS :

   NOAA       Earth
Advisory